createdAt,value
2019-01-21T00:01:22.486Z,20.62
2019-01-21T00:03:52.626Z,21.50
2019-01-21T00:06:22.513Z,21.37
2019-01-21T00:08:52.266Z,23.18
2019-01-21T00:11:22.159Z,23.60
2019-01-21T00:13:52.147Z,23.50
2019-01-21T00:16:22.388Z,20.57
2019-01-21T00:18:52.483Z,20.62
2019-01-21T00:21:21.987Z,24.52
2019-01-21T00:23:51.908Z,31.23
2019-01-21T00:26:21.714Z,27.90
2019-01-21T00:28:51.668Z,27.07
2019-01-21T00:31:21.427Z,27.20
2019-01-21T00:33:50.937Z,25.82
2019-01-21T00:36:20.649Z,27.45
2019-01-21T00:38:50.347Z,27.48
2019-01-21T00:41:20.111Z,25.12
2019-01-21T00:43:49.778Z,26.77
2019-01-21T00:46:19.582Z,24.50
2019-01-21T00:48:49.290Z,22.02
2019-01-21T00:51:18.729Z,22.82
2019-01-21T00:53:48.502Z,23.15
2019-01-21T00:56:18.668Z,23.07
2019-01-21T00:58:48.532Z,22.50
2019-01-21T01:01:18.302Z,20.40
2019-01-21T01:03:48.046Z,19.67
2019-01-21T01:06:17.582Z,19.30
2019-01-21T01:08:47.564Z,19.20
2019-01-21T01:11:17.481Z,18.67
2019-01-21T01:13:47.581Z,19.90
2019-01-21T01:16:17.612Z,20.72
2019-01-21T01:18:47.228Z,21.20
2019-01-21T01:21:16.746Z,19.57
2019-01-21T01:23:46.858Z,20.68
2019-01-21T01:26:16.653Z,19.80
2019-01-21T01:28:46.355Z,19.60
2019-01-21T01:31:16.026Z,20.60
2019-01-21T01:33:45.825Z,18.10
2019-01-21T01:36:15.538Z,21.52
2019-01-21T01:38:45.089Z,18.98
2019-01-21T01:41:15.061Z,17.87
2019-01-21T01:43:44.940Z,18.02
2019-01-21T01:46:14.458Z,17.45
2019-01-21T01:48:44.342Z,19.40
2019-01-21T01:51:14.136Z,19.65
2019-01-21T01:53:43.980Z,17.23
2019-01-21T01:56:13.879Z,16.93
2019-01-21T01:58:43.500Z,17.48
2019-01-21T02:01:13.376Z,18.57
2019-01-21T02:03:43.500Z,17.17
2019-01-21T02:06:12.999Z,16.65
2019-01-21T02:08:42.602Z,18.05
2019-01-21T02:11:12.539Z,16.17
2019-01-21T02:13:42.311Z,18.02
2019-01-21T02:16:12.537Z,18.00
2019-01-21T02:18:42.419Z,18.25
2019-01-21T02:21:12.296Z,18.55
2019-01-21T02:23:46.142Z,17.75
2019-01-21T02:26:20.099Z,18.37
2019-01-21T02:29:03.422Z,17.70
2019-01-21T02:32:07.982Z,19.02
2019-01-21T02:35:23.694Z,16.75
2019-01-21T02:38:38.891Z,16.48
2019-01-21T02:42:05.696Z,16.70
2019-01-21T02:45:18.368Z,17.55
2019-01-21T02:48:19.551Z,17.23
2019-01-21T02:51:15.826Z,18.27
2019-01-21T02:54:01.735Z,16.75
2019-01-21T02:57:21.009Z,17.57
2019-01-21T03:00:19.030Z,17.30
2019-01-21T03:03:15.115Z,17.57
2019-01-21T03:06:28.619Z,15.32
2019-01-21T03:09:50.268Z,15.75
2019-01-21T03:12:48.897Z,17.65
2019-01-21T03:16:07.182Z,15.25
2019-01-21T03:18:53.877Z,15.85
2019-01-21T03:21:46.016Z,15.85
2019-01-21T03:24:32.576Z,14.45
2019-01-21T03:27:52.299Z,13.45
2019-01-21T03:30:47.299Z,13.03
2019-01-21T03:34:01.263Z,12.15
2019-01-21T03:37:09.144Z,13.00
2019-01-21T03:40:12.951Z,12.85
2019-01-21T03:43:16.755Z,12.23
2019-01-21T03:46:33.348Z,11.63
2019-01-21T03:49:10.141Z,11.45
2019-01-21T03:52:27.798Z,12.58
2019-01-21T03:55:03.374Z,11.30
2019-01-21T03:58:11.728Z,12.25
2019-01-21T04:01:05.451Z,11.00
2019-01-21T04:04:05.930Z,12.18
2019-01-21T04:07:18.472Z,13.22
2019-01-21T04:10:16.391Z,11.53
2019-01-21T04:13:10.011Z,11.68
2019-01-21T04:16:05.930Z,12.90
2019-01-21T04:18:58.610Z,11.78
2019-01-21T04:22:00.404Z,11.08
2019-01-21T04:25:17.420Z,11.48
2019-01-21T04:28:16.391Z,12.98
2019-01-21T04:31:44.382Z,11.60
2019-01-21T04:34:55.731Z,11.63
2019-01-21T04:38:09.349Z,10.45
2019-01-21T04:41:23.088Z,11.50
2019-01-21T04:44:48.076Z,11.70
2019-01-21T04:47:51.885Z,12.37
2019-01-21T04:50:50.744Z,11.33
2019-01-21T04:53:48.714Z,11.35
2019-01-21T04:56:45.764Z,12.47
2019-01-21T05:00:09.754Z,11.83
2019-01-21T05:03:22.176Z,12.30
2019-01-21T05:06:04.608Z,11.20
2019-01-21T05:09:21.570Z,11.95
2019-01-21T05:12:34.596Z,16.60
2019-01-21T05:15:56.629Z,19.85
2019-01-21T05:19:13.388Z,15.00
2019-01-21T05:22:27.530Z,12.85
2019-01-21T05:25:27.882Z,11.65
2019-01-21T05:28:47.400Z,11.65
2019-01-21T05:31:34.251Z,12.28
2019-01-21T05:34:47.860Z,13.38
2019-01-21T05:38:02.860Z,11.78
2019-01-21T05:41:10.704Z,11.38
2019-01-21T05:44:15.463Z,12.58
2019-01-21T05:47:30.219Z,11.75
2019-01-21T05:50:34.925Z,12.20
2019-01-21T05:53:42.828Z,12.10
2019-01-21T05:56:46.125Z,11.00
2019-01-21T05:59:48.289Z,11.95
2019-01-21T06:02:53.232Z,12.20
2019-01-21T06:06:13.844Z,11.57
2019-01-21T06:09:26.764Z,11.85
2019-01-21T06:12:06.763Z,11.60
2019-01-21T06:15:23.443Z,12.05
2019-01-21T06:18:19.004Z,11.00
2019-01-21T06:21:29.506Z,12.13
2019-01-21T06:24:28.362Z,11.68
2019-01-21T06:27:34.035Z,12.15
2019-01-21T06:30:28.720Z,11.78
2019-01-21T06:33:28.143Z,11.78
2019-01-21T06:36:28.117Z,12.05
2019-01-21T06:39:37.365Z,12.05
2019-01-21T06:42:25.959Z,12.33
2019-01-21T06:45:38.711Z,11.25
2019-01-21T06:52:18.404Z,12.35
2019-01-21T06:55:32.317Z,13.00
2019-01-21T06:58:33.756Z,12.03
2019-01-21T07:01:46.320Z,12.90
2019-01-21T07:04:46.236Z,12.90
2019-01-21T07:07:56.115Z,14.13
2019-01-21T07:10:39.039Z,12.75
2019-01-21T07:14:02.195Z,12.63
2019-01-21T07:16:57.803Z,12.07
2019-01-21T07:20:24.198Z,12.68
2019-01-21T07:23:23.314Z,12.20
2019-01-21T07:26:36.154Z,14.07
2019-01-21T07:30:08.314Z,13.20
2019-01-21T07:33:10.355Z,14.93
2019-01-21T07:36:30.398Z,12.80
2019-01-21T07:39:39.814Z,13.50
2019-01-21T07:42:40.877Z,13.43
2019-01-21T07:45:48.875Z,12.70
2019-01-21T07:48:52.045Z,14.00
2019-01-21T07:51:52.649Z,13.72
2019-01-21T07:54:32.579Z,13.62
2019-01-21T07:57:55.472Z,14.68
2019-01-21T08:00:41.234Z,15.05
2019-01-21T08:03:57.227Z,15.20
2019-01-21T08:07:05.251Z,15.78
2019-01-21T08:10:14.478Z,13.90
2019-01-21T08:13:29.846Z,14.47
2019-01-21T08:16:47.189Z,14.25
2019-01-21T08:20:06.874Z,13.18
2019-01-21T08:23:33.761Z,16.52
2019-01-21T08:26:25.473Z,15.20
2019-01-21T08:29:13.160Z,14.90
2019-01-21T08:32:22.379Z,14.20
2019-01-21T08:35:20.264Z,14.35
2019-01-21T08:38:43.831Z,15.85
2019-01-21T08:41:51.750Z,14.85
2019-01-21T08:44:58.405Z,17.23
2019-01-21T08:47:51.152Z,19.15
2019-01-21T08:51:04.675Z,18.73
2019-01-21T08:53:55.590Z,17.17
2019-01-21T08:56:47.914Z,19.62
2019-01-21T08:59:56.108Z,18.17
2019-01-21T09:03:03.947Z,18.35
2019-01-21T09:06:02.671Z,19.07
2019-01-21T09:08:56.794Z,19.05
2019-01-21T09:12:40.191Z,18.82
2019-01-21T09:15:43.983Z,18.60
2019-01-21T09:19:09.561Z,16.62
2019-01-21T09:21:58.348Z,20.30
2019-01-21T09:24:58.231Z,18.75
2019-01-21T09:28:17.467Z,20.70
2019-01-21T09:31:25.227Z,21.82
2019-01-21T09:34:45.271Z,21.37
2019-01-21T09:37:40.348Z,19.82
2019-01-21T09:40:42.152Z,21.87
2019-01-21T09:43:55.880Z,20.52
2019-01-21T09:46:46.285Z,17.80
2019-01-21T09:49:14.238Z,17.70
2019-01-21T09:52:07.469Z,17.17
2019-01-21T09:54:39.026Z,18.15
2019-01-21T09:57:34.257Z,17.87
2019-01-21T10:00:06.396Z,17.77
2019-01-21T10:02:48.987Z,19.50
2019-01-21T10:05:19.587Z,18.55
2019-01-21T10:08:06.809Z,17.80
2019-01-21T10:11:03.367Z,16.73
2019-01-21T10:14:18.389Z,16.62
2019-01-21T10:17:10.414Z,16.40
2019-01-21T10:20:03.506Z,16.52
2019-01-21T10:23:15.625Z,17.10
2019-01-21T10:26:00.228Z,16.30
2019-01-21T10:29:41.513Z,16.02
2019-01-21T10:32:51.671Z,14.83
2019-01-21T10:35:58.050Z,14.87
2019-01-21T10:39:11.423Z,15.40
2019-01-21T10:42:15.584Z,15.30
2019-01-21T10:45:18.268Z,14.25
2019-01-21T10:48:15.418Z,16.32
2019-01-21T10:51:17.719Z,15.25
2019-01-21T10:54:19.650Z,14.40
2019-01-21T10:57:20.384Z,15.32
2019-01-21T11:00:29.931Z,16.60
2019-01-21T11:03:40.697Z,16.73
2019-01-21T11:06:54.028Z,17.15
2019-01-21T11:10:04.491Z,16.23
2019-01-21T11:12:54.741Z,15.63
2019-01-21T11:15:39.262Z,19.62
2019-01-21T11:18:21.863Z,16.10
2019-01-21T11:21:29.180Z,16.20
2019-01-21T11:24:35.707Z,17.35
2019-01-21T11:27:41.869Z,17.48
2019-01-21T11:30:23.664Z,15.40
2019-01-21T11:33:11.908Z,16.45
2019-01-21T11:36:31.885Z,18.02
2019-01-21T11:39:45.319Z,16.55
2019-01-21T11:43:01.757Z,16.60
2019-01-21T11:45:56.414Z,16.97
2019-01-21T11:49:11.382Z,15.32
2019-01-21T11:52:26.554Z,17.60
2019-01-21T11:55:46.135Z,17.15
2019-01-21T11:58:51.783Z,17.20
2019-01-21T12:02:14.948Z,16.42
2019-01-21T12:04:53.956Z,16.57
2019-01-21T12:08:22.870Z,15.08
2019-01-21T12:11:41.656Z,16.12
2019-01-21T12:15:00.923Z,15.95
2019-01-21T12:18:11.785Z,16.70
2019-01-21T12:21:25.926Z,15.50
2019-01-21T12:24:35.664Z,17.27
2019-01-21T12:27:58.540Z,14.90
2019-01-21T12:30:49.423Z,16.17
2019-01-21T12:33:55.296Z,16.00
2019-01-21T12:36:58.577Z,15.08
2019-01-21T12:39:50.425Z,17.02
2019-01-21T12:43:25.465Z,16.90
2019-01-21T12:46:06.018Z,14.93
2019-01-21T12:49:17.894Z,16.97
2019-01-21T12:52:27.857Z,16.62
2019-01-21T12:55:34.939Z,16.07
2019-01-21T12:58:20.064Z,16.10
2019-01-21T13:01:21.016Z,16.15
2019-01-21T13:04:14.777Z,17.12
2019-01-21T13:07:34.937Z,15.68
2019-01-21T13:10:48.628Z,16.23
2019-01-21T13:14:14.908Z,16.75
2019-01-21T13:17:08.859Z,16.30
2019-01-21T13:20:21.463Z,16.45
2019-01-21T13:23:47.391Z,17.45
2019-01-21T13:26:44.894Z,16.55
2019-01-21T13:29:51.253Z,17.25
2019-01-21T13:32:55.638Z,16.40
2019-01-21T13:36:03.791Z,16.73
2019-01-21T13:39:22.694Z,17.67
2019-01-21T13:42:30.253Z,18.95
2019-01-21T13:45:38.825Z,18.73
2019-01-21T13:48:59.011Z,18.80
2019-01-21T13:52:15.981Z,16.75
2019-01-21T13:54:59.582Z,19.30
2019-01-21T13:57:57.495Z,18.00
2019-01-21T14:00:44.185Z,18.23
2019-01-21T14:04:13.155Z,16.15
2019-01-21T14:07:17.896Z,18.52
2019-01-21T14:10:18.611Z,18.60
2019-01-21T14:13:01.212Z,16.40
2019-01-21T14:15:41.773Z,18.98
2019-01-21T14:19:01.757Z,19.00
2019-01-21T14:22:17.542Z,18.30
2019-01-21T14:25:20.059Z,18.57
2019-01-21T14:28:20.756Z,17.77
2019-01-21T14:31:03.495Z,18.35
2019-01-21T14:34:03.489Z,18.80
2019-01-21T14:37:00.850Z,19.10
2019-01-21T14:39:46.974Z,18.75
2019-01-21T14:42:58.433Z,18.17
2019-01-21T14:46:00.968Z,18.02
2019-01-21T14:49:04.872Z,18.85
2019-01-21T14:52:11.588Z,18.00
2019-01-21T14:55:34.038Z,19.80
2019-01-21T14:58:29.683Z,19.75
2019-01-21T15:01:42.375Z,20.97
2019-01-21T15:04:49.369Z,20.25
2019-01-21T15:07:46.400Z,19.98
2019-01-21T15:10:48.558Z,20.88
2019-01-21T15:13:50.462Z,20.08
2019-01-21T15:16:36.127Z,19.57
2019-01-21T15:19:29.329Z,19.05
2019-01-21T15:22:28.602Z,19.80
2019-01-21T15:25:22.936Z,20.25
2019-01-21T15:28:42.381Z,20.17
2019-01-21T15:31:56.680Z,22.62
2019-01-21T15:34:48.679Z,21.62
2019-01-21T15:37:53.944Z,19.12
2019-01-21T15:40:58.029Z,18.57
2019-01-21T15:43:45.450Z,19.67
2019-01-21T15:46:41.264Z,18.95
2019-01-21T15:49:29.922Z,19.92
2019-01-21T15:52:19.598Z,19.15
2019-01-21T15:55:19.813Z,21.12
2019-01-21T15:58:18.755Z,18.62
2019-01-21T16:00:53.644Z,24.25
2019-01-21T16:03:44.049Z,38.48
2019-01-21T16:06:45.736Z,40.52
2019-01-21T16:09:58.934Z,26.23
2019-01-21T16:13:01.267Z,44.98
2019-01-21T16:15:56.228Z,41.95
2019-01-21T16:18:57.103Z,31.95
2019-01-21T16:22:03.124Z,23.62
2019-01-21T16:24:46.683Z,21.42
2019-01-21T16:27:40.636Z,21.75
2019-01-21T16:30:37.331Z,21.75
2019-01-21T16:33:25.084Z,21.02
2019-01-21T16:36:21.140Z,21.95
2019-01-21T16:39:35.291Z,20.20
2019-01-21T16:42:15.431Z,19.92
2019-01-21T16:44:47.161Z,20.05
2019-01-21T16:47:16.933Z,21.82
2019-01-21T16:49:46.469Z,21.42
2019-01-21T16:52:16.683Z,19.00
2019-01-21T16:54:46.447Z,21.27
2019-01-21T16:57:16.203Z,21.45
2019-01-21T16:59:45.991Z,22.20
2019-01-21T17:02:15.368Z,22.77
2019-01-21T17:04:45.422Z,25.02
2019-01-21T17:07:15.892Z,23.12
2019-01-21T17:09:46.084Z,26.93
2019-01-21T17:12:16.088Z,23.52
2019-01-21T17:14:45.847Z,23.73
2019-01-21T17:17:16.454Z,25.52
2019-01-21T17:19:46.329Z,24.70
2019-01-21T17:22:16.187Z,23.47
2019-01-21T17:24:46.088Z,23.70
2019-01-21T17:27:16.320Z,22.75
2019-01-21T17:29:46.202Z,20.97
2019-01-21T17:32:16.600Z,22.55
2019-01-21T17:34:46.205Z,23.67
2019-01-21T17:37:15.842Z,24.35
2019-01-21T17:39:45.490Z,22.62
2019-01-21T17:42:15.249Z,22.50
2019-01-21T17:44:45.524Z,22.90
2019-01-21T17:47:15.723Z,21.27
2019-01-21T17:49:45.360Z,23.15
2019-01-21T17:52:15.139Z,20.70
2019-01-21T17:54:44.850Z,21.55
2019-01-21T17:57:15.070Z,22.45
2019-01-21T17:59:44.775Z,21.85
2019-01-21T18:02:14.893Z,23.65
2019-01-21T18:04:44.645Z,30.40
2019-01-21T18:07:14.737Z,25.57
2019-01-21T18:09:44.777Z,24.57
2019-01-21T18:12:14.888Z,21.50
2019-01-21T18:14:44.688Z,23.73
2019-01-21T18:17:14.797Z,43.68
2019-01-21T18:19:44.757Z,48.30
2019-01-21T18:22:14.520Z,91.10
2019-01-21T18:24:45.601Z,34.95
2019-01-21T18:27:15.488Z,26.05
2019-01-21T18:29:45.881Z,23.47
2019-01-21T18:32:15.800Z,24.92
2019-01-21T18:35:01.223Z,25.35
2019-01-21T18:37:31.185Z,23.42
2019-01-21T18:40:01.215Z,22.42
2019-01-21T18:42:30.958Z,23.00
2019-01-21T18:45:00.837Z,22.93
2019-01-21T18:47:30.719Z,24.52
2019-01-21T18:50:00.215Z,24.43
2019-01-21T18:52:30.199Z,22.98
2019-01-21T18:55:00.252Z,23.25
2019-01-21T18:57:30.261Z,22.60
2019-01-21T19:00:00.230Z,29.75
2019-01-21T19:02:30.000Z,25.05
2019-01-21T19:05:00.020Z,25.88
2019-01-21T19:07:29.995Z,25.70
2019-01-21T19:10:00.156Z,24.18
2019-01-21T19:12:30.721Z,23.87
2019-01-21T19:15:00.901Z,23.47
2019-01-21T19:17:30.857Z,24.57
2019-01-21T19:20:00.847Z,23.02
2019-01-21T19:22:30.836Z,22.85
2019-01-21T19:25:01.097Z,22.48
2019-01-21T19:27:31.141Z,24.80
2019-01-21T19:30:01.435Z,24.67
2019-01-21T19:32:31.519Z,24.07
2019-01-21T19:35:01.092Z,25.65
2019-01-21T19:37:31.316Z,25.77
2019-01-21T19:40:01.669Z,25.32
2019-01-21T19:42:31.681Z,28.60
2019-01-21T19:45:01.700Z,32.42
2019-01-21T19:47:31.688Z,29.50
2019-01-21T19:50:01.264Z,29.23
2019-01-21T19:52:30.959Z,28.38
2019-01-21T19:55:01.050Z,29.80
2019-01-21T19:57:30.782Z,28.52
2019-01-21T20:00:00.785Z,27.67
2019-01-21T20:02:31.200Z,25.75
2019-01-21T20:05:01.228Z,28.07
2019-01-21T20:07:31.443Z,24.72
2019-01-21T20:10:01.509Z,25.37
2019-01-21T20:12:31.556Z,23.73
2019-01-21T20:15:01.800Z,25.68
2019-01-21T20:17:31.707Z,24.75
2019-01-21T20:20:02.223Z,24.85
2019-01-21T20:22:31.312Z,24.18
2019-01-21T20:25:01.196Z,24.02
2019-01-21T20:27:31.192Z,23.90
2019-01-21T20:30:01.334Z,25.02
2019-01-21T20:32:31.395Z,25.85
2019-01-21T20:35:01.594Z,24.57
2019-01-21T20:37:31.678Z,28.98
2019-01-21T20:40:02.158Z,31.62
2019-01-21T20:42:32.479Z,28.52
2019-01-21T20:45:02.478Z,27.52
2019-01-21T20:47:32.397Z,29.65
2019-01-21T20:50:01.990Z,24.32
2019-01-21T20:52:32.109Z,22.95
2019-01-21T20:55:02.226Z,24.10
2019-01-21T20:57:32.143Z,22.98
2019-01-21T21:00:01.951Z,21.60
2019-01-21T21:02:31.682Z,23.35
2019-01-21T21:05:02.289Z,24.43
2019-01-21T21:07:32.418Z,25.05
2019-01-21T21:10:02.397Z,22.30
2019-01-21T21:12:32.872Z,22.40
2019-01-21T21:15:03.413Z,23.10
2019-01-21T21:17:33.472Z,22.37
2019-01-21T21:20:03.494Z,24.52
2019-01-21T21:22:33.475Z,24.00
2019-01-21T21:25:03.593Z,26.60
2019-01-21T21:27:33.589Z,27.10
2019-01-21T21:30:03.468Z,26.10
2019-01-21T21:32:33.593Z,28.25
2019-01-21T21:35:04.072Z,34.43
2019-01-21T21:37:34.313Z,32.48
2019-01-21T21:40:05.420Z,37.48
2019-01-21T21:42:36.107Z,36.55
2019-01-21T21:45:07.193Z,36.58
2019-01-21T21:47:37.435Z,31.70
2019-01-21T21:50:11.281Z,29.48
2019-01-21T21:52:41.684Z,30.00
2019-01-21T21:55:12.351Z,30.37
2019-01-21T21:57:42.365Z,31.77
2019-01-21T22:00:15.949Z,30.00
2019-01-21T22:02:46.206Z,29.25
2019-01-21T22:05:16.888Z,31.42
2019-01-21T22:07:46.906Z,28.25
2019-01-21T22:10:19.772Z,28.38
2019-01-21T22:12:50.665Z,27.48
2019-01-21T22:15:22.072Z,29.87
2019-01-21T22:17:52.186Z,28.27
2019-01-21T22:20:23.431Z,26.00
2019-01-21T22:22:53.301Z,26.35
2019-01-21T22:25:23.629Z,27.65
2019-01-21T22:27:53.630Z,27.17
2019-01-21T22:30:25.207Z,27.77
2019-01-21T22:32:55.265Z,27.25
2019-01-21T22:35:25.554Z,25.80
2019-01-21T22:37:55.580Z,26.93
2019-01-21T22:40:25.822Z,25.23
2019-01-21T22:42:56.058Z,25.08
2019-01-21T22:45:25.940Z,24.47
2019-01-21T22:47:55.785Z,28.30
2019-01-21T22:50:25.667Z,26.57
2019-01-21T22:52:55.672Z,26.23
2019-01-21T22:55:25.681Z,26.23
2019-01-21T22:57:55.689Z,23.95
2019-01-21T23:00:56.051Z,23.12
2019-01-21T23:03:27.105Z,23.35
2019-01-21T23:05:57.322Z,23.57
2019-01-21T23:08:27.400Z,25.70
2019-01-21T23:10:57.710Z,24.63
2019-01-21T23:13:27.732Z,24.63
2019-01-21T23:15:57.839Z,25.43
2019-01-21T23:18:27.474Z,25.95
2019-01-21T23:20:57.123Z,24.60
2019-01-21T23:23:26.863Z,25.40
2019-01-21T23:25:56.283Z,26.02
2019-01-21T23:28:26.102Z,24.02
2019-01-21T23:30:56.039Z,27.40
2019-01-21T23:33:25.815Z,26.07
2019-01-21T23:35:55.733Z,25.50
2019-01-21T23:38:25.452Z,26.45
2019-01-21T23:40:55.254Z,26.37
2019-01-21T23:43:24.964Z,27.65
2019-01-21T23:45:55.424Z,26.50
2019-01-21T23:48:24.956Z,24.60
2019-01-21T23:50:55.063Z,26.40
2019-01-21T23:53:24.920Z,27.58
2019-01-21T23:55:54.711Z,26.05
2019-01-21T23:58:24.775Z,25.40
